Time;durP1;ratioP1;P1;durP2;ratioP2;P2;SDS_P1;SDS_P2;PMS_P1;PMS_P2;Temp;Humidity;BMP_temperature;BMP_pressure;BME280_temperature;BME280_humidity;BME280_pressure;Samples;Min_cycle;Max_cycle;Signal;HPM_P1;HPM_P2
2023/10/08 10:57:05;;;;;;;6.00;3.80;;;;;;;;;;5144965;27;20660;-69
2023/10/08 10:59:36;;;;;;;7.30;3.90;;;;;;;;;;5145092;27;20453;-68
2023/10/08 11:02:08;;;;;;;5.80;3.90;;;;;;;;;;5142972;27;20793;-68
2023/10/08 11:04:45;;;;;;;8.50;4.90;;;;;;;;;;5142712;27;20532;-68
2023/10/08 11:07:12;;;;;;;5.43;3.90;;;;;;;;;;5135032;27;20557;-68
2023/10/08 11:09:38;;;;;;;8.63;4.20;;;;;;;;;;5136051;27;20450;-68
2023/10/08 11:12:10;;;;;;;6.60;4.60;;;;;;;;;;5111397;28;20549;-68
2023/10/08 11:14:38;;;;;;;8.23;4.73;;;;;;;;;;5123946;28;20446;-68
2023/10/08 11:17:10;;;;;;;9.67;4.47;;;;;;;;;;5120211;27;20442;-68
2023/10/08 11:19:37;;;;;;;6.60;4.10;;;;;;;;;;5115741;28;20460;-68
2023/10/08 11:22:05;;;;;;;9.33;4.77;;;;;;;;;;5120402;28;20465;-68
2023/10/08 11:24:33;;;;;;;6.33;4.33;;;;;;;;;;5126201;28;20484;-69
2023/10/08 11:27:16;;;;;;;7.73;4.27;;;;;;;;;;5116135;28;20465;-68
2023/10/08 11:29:46;;;;;;;6.57;4.03;;;;;;;;;;5112772;28;20453;-69
2023/10/08 11:32:15;;;;;;;6.30;4.20;;;;;;;;;;5112392;28;20466;-68
2023/10/08 11:34:42;;;;;;;7.90;4.87;;;;;;;;;;5117348;28;20453;-67
2023/10/08 11:37:19;;;;;;;9.13;4.80;;;;;;;;;;5118516;28;20486;-68
2023/10/08 11:39:46;;;;;;;5.20;4.70;;;;;;;;;;5115746;28;20507;-67
2023/10/08 11:42:36;;;;;;;5.30;4.17;;;;;;;;;;5120326;28;20453;-68
2023/10/08 11:45:18;;;;;;;5.23;4.73;;;;;;;;;;5118006;28;20482;-68
2023/10/08 11:47:45;;;;;;;6.33;4.70;;;;;;;;;;5122037;28;20441;-69
2023/10/08 11:50:16;;;;;;;9.13;4.20;;;;;;;;;;5125635;28;20454;-73
2023/10/08 11:52:43;;;;;;;7.07;4.23;;;;;;;;;;5109926;28;20529;-73
2023/10/08 11:55:10;;;;;;;4.63;4.23;;;;;;;;;;5130607;28;20504;-74
2023/10/08 11:57:42;;;;;;;5.77;3.87;;;;;;;;;;5120457;27;20458;-74
2023/10/08 12:00:18;;;;;;;4.67;4.20;;;;;;;;;;5111974;28;20929;-68
2023/10/08 12:02:45;;;;;;;4.97;4.13;;;;;;;;;;5116444;28;20462;-68
2023/10/08 12:05:18;;;;;;;9.03;4.30;;;;;;;;;;5116487;28;20521;-66
2023/10/08 12:07:45;;;;;;;9.00;4.77;;;;;;;;;;5102219;28;20451;-67
2023/10/08 12:10:11;;;;;;;6.63;4.03;;;;;;;;;;5097523;28;20535;-67
2023/10/08 12:12:38;;;;;;;4.77;3.80;;;;;;;;;;5103985;28;20447;-67
2023/10/08 12:15:07;;;;;;;8.80;4.60;;;;;;;;;;5099898;28;20470;-67
2023/10/08 12:17:39;;;;;;;8.23;4.20;;;;;;;;;;5102693;28;20474;-67
2023/10/08 12:20:22;;;;;;;7.47;3.70;;;;;;;;;;5100450;28;20442;-67
2023/10/08 12:22:49;;;;;;;3.90;3.60;;;;;;;;;;5100995;28;20447;-65
2023/10/08 12:25:15;;;;;;;5.23;4.03;;;;;;;;;;5105232;28;20482;-67
2023/10/08 12:27:42;;;;;;;7.70;4.17;;;;;;;;;;5101122;28;20468;-66
2023/10/08 12:30:10;;;;;;;10.00;3.90;;;;;;;;;;5099613;28;20693;-67
2023/10/08 12:32:42;;;;;;;6.03;3.97;;;;;;;;;;5100113;28;20461;-67
2023/10/08 12:35:12;;;;;;;3.90;3.33;;;;;;;;;;5093412;28;20463;-67
2023/10/08 12:37:39;;;;;;;5.93;3.70;;;;;;;;;;5100591;28;20533;-67
2023/10/08 12:40:11;;;;;;;6.37;4.10;;;;;;;;;;5097088;28;20486;-67
2023/10/08 12:42:38;;;;;;;7.10;3.60;;;;;;;;;;5099742;28;20458;-68
2023/10/08 12:45:11;;;;;;;4.90;4.10;;;;;;;;;;5103579;28;20450;-65
2023/10/08 12:47:39;;;;;;;9.60;3.80;;;;;;;;;;5099689;28;20465;-67
2023/10/08 12:50:07;;;;;;;6.80;4.60;;;;;;;;;;5097902;28;20483;-68
2023/10/08 12:52:34;;;;;;;5.23;3.70;;;;;;;;;;5102656;28;20471;-67
2023/10/08 12:55:03;;;;;;;3.90;3.50;;;;;;;;;;5102682;28;20470;-66
2023/10/08 12:57:32;;;;;;;5.77;4.10;;;;;;;;;;5099028;28;20928;-74
2023/10/08 12:59:59;;;;;;;8.57;4.13;;;;;;;;;;5098047;28;20458;-74
2023/10/08 13:02:28;;;;;;;5.60;3.90;;;;;;;;;;5098654;28;20988;-75
2023/10/08 13:04:57;;;;;;;5.37;4.60;;;;;;;;;;5097728;28;20481;-74
2023/10/08 13:07:26;;;;;;;6.47;4.10;;;;;;;;;;5088027;28;20476;-74
2023/10/08 13:09:52;;;;;;;6.53;4.43;;;;;;;;;;5097589;28;20459;-74
2023/10/08 13:12:19;;;;;;;6.43;4.43;;;;;;;;;;5100780;28;20485;-74
2023/10/08 13:14:46;;;;;;;6.57;4.00;;;;;;;;;;5103307;28;20520;-74
2023/10/08 13:17:12;;;;;;;6.07;3.93;;;;;;;;;;5106950;28;20450;-71
2023/10/08 13:19:38;;;;;;;4.93;3.90;;;;;;;;;;5109207;28;20509;-74
2023/10/08 13:22:07;;;;;;;4.13;3.60;;;;;;;;;;5110051;28;20498;-73
2023/10/08 13:24:35;;;;;;;5.97;5.47;;;;;;;;;;5098467;28;20546;-74
2023/10/08 13:27:01;;;;;;;5.17;3.70;;;;;;;;;;5111139;28;20497;-74
2023/10/08 13:29:32;;;;;;;6.03;4.10;;;;;;;;;;5098952;28;20463;-74
2023/10/08 13:31:59;;;;;;;4.53;3.80;;;;;;;;;;5115012;28;20454;-74
2023/10/08 13:34:26;;;;;;;6.10;4.03;;;;;;;;;;5110679;28;20455;-74
2023/10/08 13:36:52;;;;;;;4.07;3.57;;;;;;;;;;5112598;28;20458;-74
2023/10/08 13:39:21;;;;;;;6.40;4.83;;;;;;;;;;5106680;28;20477;-74
2023/10/08 13:41:48;;;;;;;4.47;4.07;;;;;;;;;;5108657;28;20466;-72
2023/10/08 13:44:15;;;;;;;3.53;3.17;;;;;;;;;;5092516;28;20485;-73
2023/10/08 13:46:48;;;;;;;8.50;3.90;;;;;;;;;;5096696;28;20510;-74
2023/10/08 13:49:16;;;;;;;3.47;3.17;;;;;;;;;;5097056;28;20515;-74
2023/10/08 13:51:44;;;;;;;6.30;4.13;;;;;;;;;;5110622;28;20462;-74
2023/10/08 13:54:10;;;;;;;5.17;3.40;;;;;;;;;;5102688;28;20463;-74
2023/10/08 13:56:38;;;;;;;5.17;3.87;;;;;;;;;;5104306;28;20477;-74
2023/10/08 13:59:11;;;;;;;5.93;3.77;;;;;;;;;;5106426;28;20530;-74
2023/10/08 14:01:40;;;;;;;4.17;3.77;;;;;;;;;;5104469;28;20461;-74
2023/10/08 14:04:07;;;;;;;4.83;3.40;;;;;;;;;;5105139;28;20671;-71
2023/10/08 14:06:34;;;;;;;3.97;3.57;;;;;;;;;;5099591;28;20845;-75
2023/10/08 14:09:01;;;;;;;5.53;4.10;;;;;;;;;;5103396;28;21065;-75
2023/10/08 14:11:30;;;;;;;3.80;3.50;;;;;;;;;;5101744;28;20459;-71
2023/10/08 14:13:58;;;;;;;4.50;4.10;;;;;;;;;;5098098;28;20462;-74
2023/10/08 14:16:28;;;;;;;5.30;3.50;;;;;;;;;;5096414;28;20485;-74
2023/10/08 14:18:55;;;;;;;4.53;3.90;;;;;;;;;;5097504;28;20459;-74
2023/10/08 14:21:23;;;;;;;6.70;3.80;;;;;;;;;;5098352;28;20485;-74
2023/10/08 14:23:52;;;;;;;5.50;4.00;;;;;;;;;;5111876;28;20696;-75
2023/10/08 14:26:21;;;;;;;6.00;4.27;;;;;;;;;;5094690;28;20487;-75
2023/10/08 14:28:53;;;;;;;6.53;4.10;;;;;;;;;;5107918;28;20478;-75
2023/10/08 14:31:22;;;;;;;5.07;3.70;;;;;;;;;;5108967;28;20500;-73
2023/10/08 14:34:05;;;;;;;5.73;4.07;;;;;;;;;;5113274;28;21096;-76
2023/10/08 14:44:54;;;;;;;5.23;3.70;;;;;;;;;;5101349;28;20491;-75
2023/10/08 14:47:24;;;;;;;3.57;2.90;;;;;;;;;;5096705;28;21138;-73
2023/10/08 14:49:51;;;;;;;5.37;3.20;;;;;;;;;;5098244;28;20479;-72
2023/10/08 14:52:18;;;;;;;6.33;4.57;;;;;;;;;;5100652;28;20482;-72
2023/10/08 14:54:45;;;;;;;3.77;3.47;;;;;;;;;;5106048;28;20483;-74
2023/10/08 14:57:14;;;;;;;6.30;3.70;;;;;;;;;;5099924;28;20451;-75
2023/10/08 14:59:41;;;;;;;4.93;3.70;;;;;;;;;;5101944;28;20459;-74
2023/10/08 15:02:10;;;;;;;3.57;3.27;;;;;;;;;;5097535;28;20463;-74
2023/10/08 15:04:39;;;;;;;3.17;2.90;;;;;;;;;;5099340;28;20486;-73
2023/10/08 15:07:08;;;;;;;7.80;3.10;;;;;;;;;;5106935;28;20487;-72
2023/10/08 15:09:37;;;;;;;5.73;2.90;;;;;;;;;;5095648;28;20462;-74
2023/10/08 15:12:04;;;;;;;4.50;3.23;;;;;;;;;;5101743;28;20627;-73
2023/10/08 15:14:31;;;;;;;6.00;3.13;;;;;;;;;;5097714;28;20473;-74
2023/10/08 15:16:57;;;;;;;6.90;3.30;;;;;;;;;;5098648;28;20494;-76
2023/10/08 15:19:24;;;;;;;3.40;3.20;;;;;;;;;;5104627;28;20441;-76
2023/10/08 15:21:52;;;;;;;5.90;3.13;;;;;;;;;;5105988;28;20450;-75
2023/10/08 15:24:21;;;;;;;5.13;2.90;;;;;;;;;;5106139;28;20493;-75
2023/10/08 15:26:47;;;;;;;3.00;2.80;;;;;;;;;;5104192;28;20614;-74
2023/10/08 15:29:14;;;;;;;7.57;2.70;;;;;;;;;;5100590;28;20435;-74
2023/10/08 15:31:41;;;;;;;4.00;2.57;;;;;;;;;;5098721;28;20453;-75
2023/10/08 15:34:07;;;;;;;3.50;2.67;;;;;;;;;;5099209;28;20582;-76
2023/10/08 15:36:34;;;;;;;4.27;3.00;;;;;;;;;;5101340;28;20534;-74
2023/10/08 15:39:04;;;;;;;5.43;2.73;;;;;;;;;;5106516;28;20474;-74
2023/10/08 15:41:31;;;;;;;3.60;3.30;;;;;;;;;;5097547;28;20462;-75
2023/10/08 15:43:58;;;;;;;6.03;2.53;;;;;;;;;;5108650;28;20505;-75
2023/10/08 15:46:26;;;;;;;3.23;2.73;;;;;;;;;;5095715;28;20490;-75
2023/10/08 15:48:52;;;;;;;4.13;3.10;;;;;;;;;;5104700;28;20505;-75
2023/10/08 15:51:24;;;;;;;3.40;2.80;;;;;;;;;;5105612;28;20489;-75
2023/10/08 15:53:51;;;;;;;3.20;2.90;;;;;;;;;;5099756;28;20450;-76
2023/10/08 15:56:18;;;;;;;3.20;2.80;;;;;;;;;;5101247;28;20506;-76
2023/10/08 15:58:45;;;;;;;3.00;2.70;;;;;;;;;;5108071;28;20468;-75
2023/10/08 16:01:12;;;;;;;2.87;2.67;;;;;;;;;;5107485;28;20478;-75
2023/10/08 16:03:38;;;;;;;6.20;2.93;;;;;;;;;;5104051;28;20473;-75
2023/10/08 16:06:05;;;;;;;3.00;2.63;;;;;;;;;;5105147;28;20450;-73
2023/10/08 16:08:41;;;;;;;3.33;3.00;;;;;;;;;;5118564;28;20731;-75
2023/10/08 16:11:07;;;;;;;6.33;3.10;;;;;;;;;;5095249;28;20458;-75
2023/10/08 16:13:37;;;;;;;4.93;2.70;;;;;;;;;;5101127;28;20614;-75
2023/10/08 16:16:04;;;;;;;3.07;2.63;;;;;;;;;;5098882;28;20533;-72
2023/10/08 16:18:30;;;;;;;10.50;3.27;;;;;;;;;;5098958;28;20502;-73
2023/10/08 16:20:58;;;;;;;4.97;2.97;;;;;;;;;;5101812;28;20463;-76
2023/10/08 16:23:26;;;;;;;3.47;2.30;;;;;;;;;;5104706;28;21264;-76
2023/10/08 16:25:53;;;;;;;8.70;3.50;;;;;;;;;;5099508;28;20878;-75
2023/10/08 16:28:19;;;;;;;3.70;2.57;;;;;;;;;;5097249;28;20484;-76
2023/10/08 16:30:51;;;;;;;3.13;2.60;;;;;;;;;;5104658;28;20940;-76
2023/10/08 16:33:17;;;;;;;3.50;2.70;;;;;;;;;;5100677;28;21043;-75
2023/10/08 16:35:46;;;;;;;3.67;2.53;;;;;;;;;;5105137;28;20894;-72
2023/10/08 16:38:13;;;;;;;6.70;2.50;;;;;;;;;;5101143;28;20555;-75
2023/10/08 16:40:40;;;;;;;3.57;2.33;;;;;;;;;;5098996;28;20459;-75
2023/10/08 16:43:11;;;;;;;3.67;2.70;;;;;;;;;;5102155;28;20447;-76
2023/10/08 16:45:38;;;;;;;10.53;2.90;;;;;;;;;;5100537;28;20493;-75
2023/10/08 16:48:07;;;;;;;5.90;2.30;;;;;;;;;;5101513;28;20850;-75
2023/10/08 16:50:34;;;;;;;3.43;2.40;;;;;;;;;;5100376;28;20435;-74
2023/10/08 16:53:00;;;;;;;4.00;2.50;;;;;;;;;;5100802;28;21053;-74
2023/10/08 16:55:27;;;;;;;2.97;2.60;;;;;;;;;;5098356;28;20479;-76
2023/10/08 16:57:54;;;;;;;5.47;3.33;;;;;;;;;;5102202;28;20511;-78
2023/10/08 17:00:21;;;;;;;4.70;2.17;;;;;;;;;;5103022;28;20442;-73
2023/10/08 17:02:47;;;;;;;3.83;2.60;;;;;;;;;;5101979;28;20530;-76
2023/10/08 17:05:15;;;;;;;4.97;2.40;;;;;;;;;;5104084;28;20478;-73
2023/10/08 17:07:41;;;;;;;3.23;2.60;;;;;;;;;;5099565;28;20471;-76
2023/10/08 17:10:09;;;;;;;7.20;2.90;;;;;;;;;;5104671;28;20458;-77
2023/10/08 17:12:35;;;;;;;2.80;2.20;;;;;;;;;;5099454;28;20910;-73
2023/10/08 17:15:05;;;;;;;5.00;2.30;;;;;;;;;;5101962;28;20471;-74
2023/10/08 17:17:31;;;;;;;4.33;2.43;;;;;;;;;;5099639;28;20510;-77
2023/10/08 17:19:58;;;;;;;3.73;3.20;;;;;;;;;;5103628;28;20454;-77
2023/10/08 17:22:28;;;;;;;8.73;6.53;;;;;;;;;;5104680;28;20458;-75
2023/10/08 17:24:55;;;;;;;4.10;2.90;;;;;;;;;;5102322;28;20450;-74
2023/10/08 17:27:22;;;;;;;6.43;2.40;;;;;;;;;;5099289;28;20482;-76
2023/10/08 17:29:48;;;;;;;6.40;2.13;;;;;;;;;;5099168;28;20458;-77
2023/10/08 17:32:15;;;;;;;3.60;2.50;;;;;;;;;;5092966;28;20507;-77
2023/10/08 17:34:41;;;;;;;8.20;3.20;;;;;;;;;;5098545;28;20452;-74
2023/10/08 17:37:08;;;;;;;3.60;3.00;;;;;;;;;;5102392;28;20451;-74
2023/10/08 17:39:38;;;;;;;4.00;2.60;;;;;;;;;;5104570;28;20489;-74
2023/10/08 17:42:05;;;;;;;5.43;2.70;;;;;;;;;;5110033;28;20457;-74
2023/10/08 17:44:33;;;;;;;4.50;2.83;;;;;;;;;;5097466;28;20447;-76
2023/10/08 17:47:00;;;;;;;4.93;2.67;;;;;;;;;;5095830;28;20485;-77
2023/10/08 17:49:26;;;;;;;4.03;2.90;;;;;;;;;;5100522;28;20447;-76
2023/10/08 17:51:53;;;;;;;4.03;2.80;;;;;;;;;;5102611;28;20834;-73
2023/10/08 17:54:19;;;;;;;3.58;2.78;;;;;;;;;;5096289;28;20448;-70
2023/10/08 17:56:47;;;;;;;4.60;2.60;;;;;;;;;;5107955;28;20598;-71
2023/10/08 17:59:14;;;;;;;5.00;2.50;;;;;;;;;;5097032;28;20472;-70
2023/10/08 18:01:41;;;;;;;3.77;2.60;;;;;;;;;;5099487;28;20478;-71
2023/10/08 18:04:10;;;;;;;4.80;2.57;;;;;;;;;;5099508;28;20451;-69
2023/10/08 18:06:40;;;;;;;3.43;3.00;;;;;;;;;;5095603;28;20963;-72
2023/10/08 18:09:09;;;;;;;2.87;2.53;;;;;;;;;;5101279;28;21018;-71
2023/10/08 18:11:41;;;;;;;6.43;3.33;;;;;;;;;;5099756;28;20518;-71
2023/10/08 18:14:11;;;;;;;5.13;4.73;;;;;;;;;;5098687;28;21165;-70
2023/10/08 18:16:40;;;;;;;3.23;2.70;;;;;;;;;;5102996;28;20463;-72
2023/10/08 18:19:07;;;;;;;4.07;3.17;;;;;;;;;;5102598;28;20477;-72
2023/10/08 18:21:37;;;;;;;3.10;2.80;;;;;;;;;;5099170;28;20512;-70
2023/10/08 18:24:05;;;;;;;3.00;2.50;;;;;;;;;;5101610;28;20493;-71
2023/10/08 18:26:31;;;;;;;2.87;2.67;;;;;;;;;;5095058;28;20455;-70
2023/10/08 18:28:58;;;;;;;5.33;3.40;;;;;;;;;;5101077;28;20482;-69
2023/10/08 18:31:27;;;;;;;4.40;3.07;;;;;;;;;;5099259;28;20455;-72
2023/10/08 18:33:55;;;;;;;3.30;2.50;;;;;;;;;;5099752;28;20462;-72
2023/10/08 18:36:24;;;;;;;5.37;3.03;;;;;;;;;;5097709;28;20462;-71
2023/10/08 18:38:50;;;;;;;3.60;2.87;;;;;;;;;;5091647;28;20440;-71
2023/10/08 18:41:17;;;;;;;4.27;2.80;;;;;;;;;;5106093;28;21063;-72
2023/10/08 18:43:44;;;;;;;4.10;3.00;;;;;;;;;;5108055;28;20439;-72
2023/10/08 18:46:10;;;;;;;2.93;2.40;;;;;;;;;;5104947;28;20455;-72
2023/10/08 18:48:39;;;;;;;5.20;2.70;;;;;;;;;;5105547;28;20535;-73
2023/10/08 18:51:07;;;;;;;3.87;3.00;;;;;;;;;;5106880;28;20502;-71
2023/10/08 18:53:34;;;;;;;4.03;2.63;;;;;;;;;;5102548;28;20451;-70
2023/10/08 18:56:05;;;;;;;5.90;2.63;;;;;;;;;;5103483;28;20518;-70
2023/10/08 18:58:31;;;;;;;5.30;2.60;;;;;;;;;;5108551;28;20447;-71
2023/10/08 19:00:58;;;;;;;5.10;3.00;;;;;;;;;;5107232;28;20466;-71
2023/10/08 19:03:24;;;;;;;6.07;3.33;;;;;;;;;;5103472;28;21027;-71
2023/10/08 19:05:54;;;;;;;6.63;2.53;;;;;;;;;;5106109;28;20459;-71
2023/10/08 19:08:21;;;;;;;5.53;3.00;;;;;;;;;;5108251;28;20501;-71
2023/10/08 19:10:48;;;;;;;3.13;2.70;;;;;;;;;;5109404;28;20535;-71
2023/10/08 19:13:15;;;;;;;11.93;3.40;;;;;;;;;;5113811;28;20458;-71
2023/10/08 19:15:41;;;;;;;3.67;2.70;;;;;;;;;;5100470;28;20451;-70
2023/10/08 19:18:10;;;;;;;6.73;4.70;;;;;;;;;;5106744;28;20462;-71
2023/10/08 19:20:37;;;;;;;5.90;3.23;;;;;;;;;;5106810;28;20457;-70
2023/10/08 19:23:06;;;;;;;7.03;3.30;;;;;;;;;;5107544;28;20494;-72
2023/10/08 19:25:35;;;;;;;6.87;3.43;;;;;;;;;;5109540;28;20463;-71
2023/10/08 19:28:01;;;;;;;6.93;4.50;;;;;;;;;;5107109;28;20475;-71
2023/10/08 19:30:32;;;;;;;7.70;5.23;;;;;;;;;;5107191;28;20455;-70
2023/10/08 19:32:59;;;;;;;5.80;3.30;;;;;;;;;;5112163;28;20859;-69
2023/10/08 19:35:27;;;;;;;13.73;10.37;;;;;;;;;;5106487;28;20516;-71
2023/10/08 19:37:53;;;;;;;15.43;7.67;;;;;;;;;;5110337;28;20461;-71
2023/10/08 19:40:22;;;;;;;8.67;4.90;;;;;;;;;;5108040;28;20473;-71
2023/10/08 19:42:49;;;;;;;4.80;4.27;;;;;;;;;;5098187;28;20470;-68
2023/10/08 19:45:15;;;;;;;5.17;3.77;;;;;;;;;;5097613;28;20963;-68
2023/10/08 19:47:43;;;;;;;6.90;3.57;;;;;;;;;;5113579;28;20477;-68
2023/10/08 19:50:10;;;;;;;5.20;3.20;;;;;;;;;;5107504;28;20492;-70
2023/10/08 19:52:37;;;;;;;6.23;2.67;;;;;;;;;;5108532;28;20468;-68
2023/10/08 19:55:04;;;;;;;13.83;8.90;;;;;;;;;;5114913;28;20482;-68
2023/10/08 19:57:32;;;;;;;8.40;7.03;;;;;;;;;;5108737;28;20455;-68
2023/10/08 20:00:00;;;;;;;4.90;4.40;;;;;;;;;;5108000;28;20477;-69
2023/10/08 20:02:28;;;;;;;4.90;3.67;;;;;;;;;;5101951;28;20458;-69
2023/10/08 20:04:54;;;;;;;6.83;3.90;;;;;;;;;;5100185;28;20509;-69
2023/10/08 20:07:21;;;;;;;5.00;3.03;;;;;;;;;;5102874;28;20459;-69
2023/10/08 20:09:48;;;;;;;4.47;3.63;;;;;;;;;;5106770;28;20869;-69
2023/10/08 20:12:14;;;;;;;6.13;2.60;;;;;;;;;;5105749;28;20552;-69
2023/10/08 20:14:42;;;;;;;7.83;3.20;;;;;;;;;;5104606;28;20446;-68
2023/10/08 20:17:09;;;;;;;4.73;2.87;;;;;;;;;;5103759;28;20471;-69
2023/10/08 20:19:35;;;;;;;7.57;3.57;;;;;;;;;;5103014;28;20451;-69
2023/10/08 20:22:01;;;;;;;4.33;3.07;;;;;;;;;;5104252;28;20490;-69
2023/10/08 20:24:28;;;;;;;3.90;2.63;;;;;;;;;;5106046;28;20478;-70
2023/10/08 20:26:55;;;;;;;6.20;3.13;;;;;;;;;;5110714;28;20469;-70
2023/10/08 20:29:21;;;;;;;8.70;4.03;;;;;;;;;;5102997;28;20539;-69
2023/10/08 20:31:49;;;;;;;3.50;2.70;;;;;;;;;;5103675;28;20482;-69
2023/10/08 20:34:15;;;;;;;3.90;2.93;;;;;;;;;;5106869;28;20469;-69
2023/10/08 20:36:42;;;;;;;3.30;3.00;;;;;;;;;;5101322;28;20509;-69
2023/10/08 20:39:10;;;;;;;6.13;2.47;;;;;;;;;;5097236;28;20501;-69
2023/10/08 20:41:37;;;;;;;3.27;2.70;;;;;;;;;;5109310;28;20477;-69
2023/10/08 20:44:04;;;;;;;4.07;2.57;;;;;;;;;;5111823;28;20470;-69
2023/10/08 20:46:31;;;;;;;3.80;3.00;;;;;;;;;;5110904;28;20483;-69
2023/10/08 20:48:59;;;;;;;6.90;2.50;;;;;;;;;;5104565;28;20485;-70
2023/10/08 20:51:27;;;;;;;3.90;3.00;;;;;;;;;;5101567;28;20458;-70
2023/10/08 20:53:56;;;;;;;7.63;2.50;;;;;;;;;;5104328;28;20848;-68
2023/10/08 20:56:22;;;;;;;5.23;2.77;;;;;;;;;;5099964;28;20495;-68
2023/10/08 20:58:49;;;;;;;2.93;2.33;;;;;;;;;;5102365;28;20504;-69
2023/10/08 21:01:17;;;;;;;3.90;2.53;;;;;;;;;;5099146;28;20820;-70
2023/10/08 21:03:43;;;;;;;4.80;2.50;;;;;;;;;;5097502;28;20463;-70
2023/10/08 21:06:18;;;;;;;3.50;2.60;;;;;;;;;;5099984;28;20482;-69
2023/10/08 21:08:44;;;;;;;6.80;2.40;;;;;;;;;;5104782;28;20749;-69
2023/10/08 21:11:13;;;;;;;4.20;2.07;;;;;;;;;;5105027;28;20496;-69
2023/10/08 21:13:40;;;;;;;6.33;3.27;;;;;;;;;;5106072;28;20952;-69
2023/10/08 21:16:12;;;;;;;3.37;2.33;;;;;;;;;;5104303;28;20488;-69
2023/10/08 21:18:39;;;;;;;4.03;2.70;;;;;;;;;;5101268;28;20446;-69
2023/10/08 21:21:05;;;;;;;4.00;2.33;;;;;;;;;;5101039;28;20874;-70
2023/10/08 21:23:33;;;;;;;4.57;2.63;;;;;;;;;;5103239;28;20463;-69
2023/10/08 21:26:00;;;;;;;7.80;2.57;;;;;;;;;;5108713;28;20443;-68
2023/10/08 21:28:27;;;;;;;3.27;1.83;;;;;;;;;;5107172;28;20561;-67
2023/10/08 21:30:54;;;;;;;5.50;2.63;;;;;;;;;;5100669;28;20863;-68
2023/10/08 21:33:20;;;;;;;3.53;2.50;;;;;;;;;;5102853;28;20450;-69
2023/10/08 21:35:47;;;;;;;4.37;3.00;;;;;;;;;;5102091;28;20469;-69
2023/10/08 21:38:13;;;;;;;3.23;2.50;;;;;;;;;;5096743;28;20469;-69
2023/10/08 21:40:42;;;;;;;3.80;2.70;;;;;;;;;;5100433;28;20458;-69
2023/10/08 21:43:08;;;;;;;5.30;2.40;;;;;;;;;;5110842;28;20454;-69
2023/10/08 21:45:34;;;;;;;3.93;2.30;;;;;;;;;;5100581;28;20484;-69
2023/10/08 21:48:01;;;;;;;5.60;2.10;;;;;;;;;;5103741;28;20455;-69
2023/10/08 21:50:27;;;;;;;4.87;2.87;;;;;;;;;;5102640;28;20491;-69
2023/10/08 21:52:54;;;;;;;5.23;3.10;;;;;;;;;;5099262;28;20483;-68
2023/10/08 21:55:21;;;;;;;5.70;2.20;;;;;;;;;;5105264;28;20553;-68
2023/10/08 21:57:49;;;;;;;2.80;2.47;;;;;;;;;;5099044;28;20852;-69
2023/10/08 22:00:31;;;;;;;4.63;3.27;;;;;;;;;;5103208;28;20506;-69
2023/10/08 22:02:58;;;;;;;7.60;3.03;;;;;;;;;;5096808;28;20454;-69
2023/10/08 22:05:25;;;;;;;4.13;2.33;;;;;;;;;;5100118;28;20482;-69
2023/10/08 22:07:52;;;;;;;4.50;2.37;;;;;;;;;;5103844;28;20569;-69
2023/10/08 22:10:20;;;;;;;3.03;2.53;;;;;;;;;;5099675;28;20513;-69
2023/10/08 22:12:47;;;;;;;4.63;2.60;;;;;;;;;;5096968;28;20474;-69
2023/10/08 22:15:17;;;;;;;4.20;3.20;;;;;;;;;;5102864;28;20446;-69
2023/10/08 22:17:44;;;;;;;5.60;2.73;;;;;;;;;;5095578;28;20447;-69
2023/10/08 22:20:12;;;;;;;5.47;2.60;;;;;;;;;;5104101;28;20470;-69
2023/10/08 22:22:41;;;;;;;3.73;2.50;;;;;;;;;;5105664;28;20478;-70
2023/10/08 22:25:10;;;;;;;4.30;2.60;;;;;;;;;;5103010;28;20458;-70
2023/10/08 22:27:38;;;;;;;5.77;3.00;;;;;;;;;;5106530;28;20492;-71
2023/10/08 22:30:07;;;;;;;4.20;2.67;;;;;;;;;;5102091;28;21082;-70
2023/10/08 22:32:36;;;;;;;4.80;2.30;;;;;;;;;;5102540;28;20466;-72
2023/10/08 22:35:13;;;;;;;3.03;2.57;;;;;;;;;;5105774;28;20461;-72
2023/10/08 22:40:22;;;;;;;4.13;2.70;;;;;;;;;;5103668;28;20793;-73
2023/10/08 22:42:49;;;;;;;4.20;2.37;;;;;;;;;;5108988;28;20466;-72
2023/10/08 22:45:16;;;;;;;4.03;2.63;;;;;;;;;;5106797;28;20478;-72
2023/10/08 22:47:44;;;;;;;3.63;2.23;;;;;;;;;;5105498;28;20443;-73
2023/10/08 22:50:34;;;;;;;5.40;3.00;;;;;;;;;;5100324;28;20488;-72
2023/10/08 22:53:01;;;;;;;3.07;2.20;;;;;;;;;;5106768;28;20446;-71
2023/10/08 22:55:27;;;;;;;3.60;2.93;;;;;;;;;;5099478;28;20505;-71
2023/10/08 22:57:54;;;;;;;4.60;2.13;;;;;;;;;;5109212;28;20542;-71
2023/10/08 23:00:26;;;;;;;7.63;2.83;;;;;;;;;;5099486;28;20446;-71
2023/10/08 23:02:54;;;;;;;6.97;3.07;;;;;;;;;;5101520;28;20523;-72
2023/10/08 23:05:22;;;;;;;5.23;2.57;;;;;;;;;;5108804;28;20672;-71
2023/10/08 23:07:48;;;;;;;5.97;3.07;;;;;;;;;;5101622;28;20469;-71
2023/10/08 23:10:15;;;;;;;4.93;2.63;;;;;;;;;;5115124;28;20531;-71
2023/10/08 23:12:42;;;;;;;9.50;2.77;;;;;;;;;;5100760;28;20490;-70
2023/10/08 23:15:11;;;;;;;4.90;2.80;;;;;;;;;;5100644;28;20455;-71
2023/10/08 23:17:39;;;;;;;4.10;2.57;;;;;;;;;;5100206;28;20494;-71
2023/10/08 23:20:11;;;;;;;2.50;1.90;;;;;;;;;;5101353;28;20504;-71
2023/10/08 23:22:37;;;;;;;3.10;2.10;;;;;;;;;;5102242;28;20481;-71
2023/10/08 23:25:04;;;;;;;4.83;2.73;;;;;;;;;;5101291;28;20518;-71
2023/10/08 23:27:31;;;;;;;2.70;2.07;;;;;;;;;;5097588;28;20452;-71
2023/10/08 23:29:58;;;;;;;3.90;2.40;;;;;;;;;;5104455;28;20478;-71
2023/10/08 23:32:26;;;;;;;5.70;3.10;;;;;;;;;;5103144;28;20518;-70
2023/10/08 23:34:59;;;;;;;4.43;2.30;;;;;;;;;;5102217;28;20457;-70
2023/10/08 23:37:36;;;;;;;5.60;3.20;;;;;;;;;;5108978;28;20466;-70
2023/10/08 23:40:11;;;;;;;4.40;2.70;;;;;;;;;;5100715;28;20492;-70
2023/10/08 23:42:44;;;;;;;6.43;2.27;;;;;;;;;;5098051;28;20470;-70
2023/10/08 23:45:13;;;;;;;5.77;2.73;;;;;;;;;;5100989;28;20462;-70
2023/10/08 23:47:45;;;;;;;4.70;2.87;;;;;;;;;;5102416;28;20470;-70
2023/10/08 23:50:14;;;;;;;5.23;2.80;;;;;;;;;;5106994;28;21021;-70
2023/10/08 23:52:47;;;;;;;5.37;2.80;;;;;;;;;;5100400;28;20482;-70
2023/10/08 23:55:16;;;;;;;4.07;2.57;;;;;;;;;;5105145;28;20513;-70
2023/10/08 23:57:47;;;;;;;3.97;2.90;;;;;;;;;;5100252;28;20473;-70
